createdAt,value
2023-03-08T00:02:18.240Z,99493.75
2023-03-08T00:04:47.668Z,99494.00
2023-03-08T00:07:18.369Z,99493.09
2023-03-08T00:09:47.961Z,99494.00
2023-03-08T00:12:19.308Z,99494.66
2023-03-08T00:14:48.793Z,99486.06
2023-03-08T00:17:21.522Z,99477.59
2023-03-08T00:19:51.348Z,99485.06
2023-03-08T00:22:20.862Z,99488.69
2023-03-08T00:24:50.432Z,99484.09
2023-03-08T00:27:19.832Z,99487.47
2023-03-08T00:29:49.304Z,99486.81
2023-03-08T00:32:21.453Z,99497.28
2023-03-08T00:34:50.871Z,99500.69
2023-03-08T00:37:20.267Z,99504.31
2023-03-08T00:39:53.549Z,99503.31
2023-03-08T00:42:26.355Z,99510.91
2023-03-08T00:44:55.801Z,99512.44
2023-03-08T00:47:27.895Z,99518.38
2023-03-08T00:49:57.349Z,99511.34
2023-03-08T00:52:26.773Z,99510.47
2023-03-08T00:54:56.196Z,99522.78
2023-03-08T00:57:25.586Z,99511.78
2023-03-08T00:59:55.121Z,99510.25
2023-03-08T01:02:27.201Z,99499.91
2023-03-08T01:04:56.613Z,99492.44
2023-03-08T01:07:28.476Z,99497.25
2023-03-08T01:09:58.446Z,99505.81
2023-03-08T01:12:28.913Z,99488.91
2023-03-08T01:14:58.571Z,99499.00
2023-03-08T01:17:30.594Z,99484.16
2023-03-08T01:20:00.557Z,99485.59
2023-03-08T01:22:29.973Z,99479.56
2023-03-08T01:24:59.610Z,99469.47
2023-03-08T01:27:29.051Z,99470.44
2023-03-08T01:29:58.441Z,99464.16
2023-03-08T01:32:30.893Z,99447.13
2023-03-08T01:35:04.672Z,99443.06
2023-03-08T01:37:34.315Z,99437.34
2023-03-08T01:40:05.071Z,99445.25
2023-03-08T01:42:34.934Z,99429.66
2023-03-08T01:45:06.728Z,99428.66
2023-03-08T01:47:38.910Z,99424.28
2023-03-08T01:50:11.596Z,99426.56
2023-03-08T01:52:42.968Z,99409.53
2023-03-08T01:55:15.875Z,99409.06
2023-03-08T01:57:47.423Z,99396.56
2023-03-08T02:00:19.231Z,99402.06
2023-03-08T02:02:53.656Z,99393.84
2023-03-08T02:05:23.715Z,99380.97
2023-03-08T02:07:53.185Z,99366.16
2023-03-08T02:10:23.180Z,99355.97
2023-03-08T02:12:52.897Z,99357.50
2023-03-08T02:15:23.400Z,99346.53
2023-03-08T02:17:55.534Z,99341.50
2023-03-08T02:20:27.862Z,99344.13
2023-03-08T02:23:10.082Z,99339.63
2023-03-08T02:25:39.852Z,99343.97
2023-03-08T02:28:10.066Z,99339.94
2023-03-08T02:30:40.725Z,99345.84
2023-03-08T02:33:10.467Z,99344.22
2023-03-08T02:35:42.850Z,99341.81
2023-03-08T02:38:16.214Z,99341.81
2023-03-08T02:40:45.685Z,99334.88
2023-03-08T02:43:15.205Z,99330.06
2023-03-08T02:45:44.619Z,99332.69
2023-03-08T02:48:14.635Z,99329.72
2023-03-08T02:50:44.021Z,99324.78
2023-03-08T02:53:16.046Z,99324.72
2023-03-08T02:55:45.482Z,99323.47
2023-03-08T02:58:14.896Z,99322.81
2023-03-08T03:00:44.286Z,99323.06
2023-03-08T03:03:13.666Z,99317.22
2023-03-08T03:05:46.890Z,99317.34
2023-03-08T03:08:19.134Z,99311.94
2023-03-08T03:10:48.547Z,99310.50
2023-03-08T03:13:17.924Z,99309.00
2023-03-08T03:15:47.435Z,99305.03
2023-03-08T03:18:17.074Z,99301.84
2023-03-08T03:20:46.499Z,99297.97
2023-03-08T03:23:18.601Z,99300.50
2023-03-08T03:25:48.003Z,99296.44
2023-03-08T03:28:17.372Z,99303.25
2023-03-08T03:30:46.805Z,99310.28
2023-03-08T03:33:16.391Z,99305.22
2023-03-08T03:35:45.794Z,99307.19
2023-03-08T03:38:17.916Z,99315.53
2023-03-08T03:40:47.303Z,99314.88
2023-03-08T03:43:17.306Z,99311.81
2023-03-08T03:45:46.738Z,99315.06
2023-03-08T03:48:17.238Z,99311.69
2023-03-08T03:50:46.671Z,99317.94
2023-03-08T03:53:18.924Z,99318.13
2023-03-08T03:55:48.352Z,99319.88
2023-03-08T03:58:17.823Z,99323.31
2023-03-08T04:00:47.403Z,99328.25
2023-03-08T04:03:16.924Z,99333.53
2023-03-08T04:05:46.410Z,99339.38
2023-03-08T04:08:18.457Z,99335.06
2023-03-08T04:10:47.886Z,99332.97
2023-03-08T04:13:17.364Z,99326.16
2023-03-08T04:15:47.471Z,99335.47
2023-03-08T04:18:17.494Z,99346.50
2023-03-08T04:20:47.191Z,99335.47
2023-03-08T04:23:19.464Z,99342.88
2023-03-08T04:25:50.147Z,99346.38
2023-03-08T04:28:19.582Z,99350.44
2023-03-08T04:30:49.058Z,99355.72
2023-03-08T04:33:18.526Z,99356.78
2023-03-08T04:35:47.986Z,99348.56
2023-03-08T04:38:20.059Z,99341.75
2023-03-08T04:41:07.956Z,99337.47
2023-03-08T04:43:37.513Z,99344.28
2023-03-08T04:46:07.366Z,99334.16
2023-03-08T04:48:37.159Z,99338.56
2023-03-08T04:51:08.824Z,99338.44
2023-03-08T04:53:41.739Z,99335.13
2023-03-08T04:56:11.856Z,99339.22
2023-03-08T04:58:42.152Z,99334.38
2023-03-08T05:01:12.993Z,99345.25
2023-03-08T05:03:42.529Z,99344.28
2023-03-08T05:06:12.476Z,99340.97
2023-03-08T05:08:44.710Z,99342.72
2023-03-08T05:11:18.371Z,99335.13
2023-03-08T05:13:47.895Z,99345.03
2023-03-08T05:16:17.689Z,99347.56
2023-03-08T05:18:47.055Z,99347.56
2023-03-08T05:21:18.331Z,99351.84
2023-03-08T05:23:50.502Z,99352.63
2023-03-08T05:26:21.642Z,99351.66
2023-03-08T05:28:51.069Z,99351.06
2023-03-08T05:31:22.928Z,99351.06
2023-03-08T05:33:54.054Z,99349.13
2023-03-08T05:36:23.524Z,99353.19
2023-03-08T05:38:58.368Z,99351.06
2023-03-08T05:41:27.800Z,99362.94
2023-03-08T05:43:58.575Z,99363.16
2023-03-08T05:46:30.152Z,99353.91
2023-03-08T05:49:00.892Z,99357.47
2023-03-08T05:51:30.275Z,99364.91
2023-03-08T05:54:02.267Z,99366.47
2023-03-08T05:56:31.694Z,99379.69
2023-03-08T05:59:01.079Z,99387.19
2023-03-08T06:01:31.243Z,99390.88
2023-03-08T06:04:00.797Z,99393.91
2023-03-08T06:06:30.877Z,99389.50
2023-03-08T06:09:02.884Z,99390.41
2023-03-08T06:11:32.511Z,99390.50
2023-03-08T06:14:01.925Z,99404.91
2023-03-08T06:16:31.355Z,99395.56
2023-03-08T06:19:00.763Z,99394.91
2023-03-08T06:21:30.772Z,99403.34
2023-03-08T06:24:02.775Z,99404.25
2023-03-08T06:26:32.240Z,99396.34
2023-03-08T06:29:01.687Z,99400.03
2023-03-08T06:31:31.211Z,99401.16
2023-03-08T06:34:00.676Z,99404.13
2023-03-08T06:36:30.380Z,99405.56
2023-03-08T06:39:02.380Z,99404.00
2023-03-08T06:41:32.244Z,99406.47
2023-03-08T06:44:01.977Z,99416.56
2023-03-08T06:46:31.437Z,99413.50
2023-03-08T06:49:04.282Z,99411.28
2023-03-08T06:51:33.673Z,99407.63
2023-03-08T06:54:05.712Z,99409.72
2023-03-08T06:56:35.182Z,99412.06
2023-03-08T06:59:05.188Z,99412.97
2023-03-08T07:01:34.628Z,99415.22
2023-03-08T07:04:04.080Z,99409.84
2023-03-08T07:06:33.558Z,99412.59
2023-03-08T07:09:05.628Z,99411.84
2023-03-08T07:11:35.243Z,99409.50
2023-03-08T07:14:04.675Z,99417.19
2023-03-08T07:16:34.089Z,99420.28
2023-03-08T07:19:04.580Z,99423.38
2023-03-08T07:21:34.006Z,99419.06
2023-03-08T07:24:07.394Z,99426.78
2023-03-08T07:26:36.777Z,99431.50
2023-03-08T07:29:06.218Z,99426.00
2023-03-08T07:31:36.303Z,99436.78
2023-03-08T07:34:05.892Z,99428.72
2023-03-08T07:36:35.547Z,99431.81
2023-03-08T07:39:07.558Z,99439.06
2023-03-08T07:41:36.954Z,99439.63
2023-03-08T07:44:06.530Z,99438.41
2023-03-08T07:46:36.023Z,99440.03
2023-03-08T07:49:10.504Z,99439.84
2023-03-08T07:51:40.180Z,99441.13
2023-03-08T07:54:13.536Z,99447.50
2023-03-08T07:56:43.065Z,99447.38
2023-03-08T07:59:12.513Z,99450.16
2023-03-08T08:01:41.919Z,99452.97
2023-03-08T08:04:12.577Z,99451.53
2023-03-08T08:06:42.355Z,99458.25
2023-03-08T08:09:15.663Z,99452.63
2023-03-08T08:11:45.098Z,99456.25
2023-03-08T08:14:14.511Z,99467.91
2023-03-08T08:16:43.996Z,99468.13
2023-03-08T08:19:14.714Z,99465.81
2023-03-08T08:21:44.176Z,99463.69
2023-03-08T08:24:16.352Z,99467.88
2023-03-08T08:26:45.962Z,99447.84
2023-03-08T08:29:15.809Z,99444.16
2023-03-08T08:31:45.634Z,99440.28
2023-03-08T08:34:15.062Z,99451.50
2023-03-08T08:36:44.468Z,99461.78
2023-03-08T08:39:16.579Z,99463.22
2023-03-08T08:41:46.001Z,99468.09
2023-03-08T08:44:15.681Z,99464.97
2023-03-08T08:46:45.157Z,99453.19
2023-03-08T08:49:14.644Z,99465.31
2023-03-08T08:51:44.039Z,99468.69
2023-03-08T08:54:16.079Z,99466.38
2023-03-08T08:56:45.716Z,99478.47
2023-03-08T08:59:16.396Z,99486.06
2023-03-08T09:01:47.105Z,99492.69
2023-03-08T09:04:17.395Z,99496.66
2023-03-08T09:06:47.257Z,99492.19
2023-03-08T09:09:20.342Z,99483.78
2023-03-08T09:11:55.188Z,99493.44
2023-03-08T09:14:25.734Z,99494.44
2023-03-08T09:16:55.287Z,99488.38
2023-03-08T09:19:24.826Z,99484.53
2023-03-08T09:21:54.271Z,99493.19
2023-03-08T09:24:26.279Z,99495.53
2023-03-08T09:26:55.755Z,99493.06
2023-03-08T09:29:25.683Z,99491.94
2023-03-08T09:31:56.258Z,99490.66
2023-03-08T09:34:27.061Z,99493.19
2023-03-08T09:36:56.528Z,99491.03
2023-03-08T09:39:29.112Z,99492.72
2023-03-08T09:42:00.712Z,99488.50
2023-03-08T09:44:48.946Z,99494.47
2023-03-08T09:47:25.951Z,99487.28
2023-03-08T09:49:56.977Z,99485.41
2023-03-08T09:52:32.422Z,99488.91
2023-03-08T09:55:06.097Z,99479.19
2023-03-08T09:57:40.701Z,99492.63
2023-03-08T10:00:22.069Z,99475.97
2023-03-08T10:03:04.253Z,99477.59
2023-03-08T10:05:37.113Z,99475.66
2023-03-08T10:08:09.315Z,99468.47
2023-03-08T10:10:45.731Z,99462.41
2023-03-08T10:13:30.814Z,99462.22
2023-03-08T10:16:08.611Z,99454.81
2023-03-08T10:18:41.857Z,99442.84
2023-03-08T10:21:14.231Z,99449.53
2023-03-08T10:23:44.110Z,99446.22
2023-03-08T10:26:18.574Z,99450.34
2023-03-08T10:28:47.966Z,99446.91
2023-03-08T10:31:24.073Z,99448.88
2023-03-08T10:33:59.032Z,99456.38
2023-03-08T10:36:28.576Z,99452.00
2023-03-08T10:39:09.916Z,99461.47
2023-03-08T10:41:44.406Z,99455.91
2023-03-08T10:44:17.338Z,99454.63
2023-03-08T10:46:53.049Z,99457.78
2023-03-08T10:49:22.852Z,99459.03
2023-03-08T10:51:56.746Z,99462.34
2023-03-08T10:54:26.230Z,99464.19
2023-03-08T10:57:00.663Z,99461.84
2023-03-08T10:59:32.846Z,99459.41
2023-03-08T11:02:04.520Z,99471.88
2023-03-08T11:04:34.433Z,99471.47
2023-03-08T11:07:13.253Z,99478.41
2023-03-08T11:09:42.735Z,99489.53
2023-03-08T11:12:26.190Z,99500.00
2023-03-08T11:14:58.062Z,99494.78
2023-03-08T11:17:31.028Z,99498.50
2023-03-08T11:20:11.342Z,99497.91
2023-03-08T11:23:02.216Z,99497.44
2023-03-08T11:25:39.664Z,99496.56
2023-03-08T11:28:34.252Z,99491.72
2023-03-08T11:31:19.253Z,99489.97
2023-03-08T11:34:00.358Z,99491.09
2023-03-08T11:36:34.414Z,99489.47
2023-03-08T11:39:14.956Z,99483.44
2023-03-08T11:41:49.958Z,99491.31
2023-03-08T11:44:31.343Z,99493.16
2023-03-08T11:47:29.945Z,99491.00
2023-03-08T11:50:07.047Z,99489.28
2023-03-08T11:52:42.776Z,99492.38
2023-03-08T11:55:31.540Z,99493.78
2023-03-08T11:58:06.033Z,99499.66
2023-03-08T12:00:40.932Z,99503.19
2023-03-08T12:03:16.476Z,99491.78
2023-03-08T12:05:51.125Z,99495.13
2023-03-08T12:08:24.080Z,99507.50
2023-03-08T12:10:58.058Z,99497.06
2023-03-08T12:13:31.582Z,99504.34
2023-03-08T12:16:10.213Z,99507.59
2023-03-08T12:18:46.154Z,99504.81
2023-03-08T12:21:27.005Z,99503.00
2023-03-08T12:24:05.617Z,99505.03
2023-03-08T12:26:38.242Z,99508.78
2023-03-08T12:29:13.347Z,99502.63
2023-03-08T12:31:48.509Z,99502.28
2023-03-08T12:34:29.192Z,99502.28
2023-03-08T12:36:58.656Z,99493.88
2023-03-08T12:39:31.612Z,99501.34
2023-03-08T12:42:03.352Z,99494.66
2023-03-08T12:44:33.811Z,99489.69
2023-03-08T12:47:22.168Z,99489.84
2023-03-08T12:49:53.741Z,99476.09
2023-03-08T12:52:30.421Z,99474.94
2023-03-08T12:55:01.985Z,99469.78
2023-03-08T12:57:33.621Z,99468.19
2023-03-08T13:00:09.616Z,99473.88
2023-03-08T13:02:41.648Z,99468.09
2023-03-08T13:05:23.304Z,99465.44
2023-03-08T13:08:03.453Z,99460.03
2023-03-08T13:10:35.290Z,99445.09
2023-03-08T13:13:36.790Z,99455.63
2023-03-08T13:16:22.636Z,99451.41
2023-03-08T13:19:04.768Z,99437.69
2023-03-08T13:21:38.486Z,99433.34
2023-03-08T13:24:14.264Z,99422.22
2023-03-08T13:26:52.070Z,99422.38
2023-03-08T13:29:23.220Z,99410.22
2023-03-08T13:31:53.216Z,99390.72
2023-03-08T13:34:36.098Z,99393.69
2023-03-08T13:37:05.600Z,99381.38
2023-03-08T13:39:35.286Z,99458.38
2023-03-08T13:42:10.303Z,99450.97
2023-03-08T13:44:39.901Z,99446.88
2023-03-08T13:47:21.243Z,99410.50
2023-03-08T13:49:53.943Z,99395.56
2023-03-08T13:52:26.080Z,99388.69
2023-03-08T13:54:57.727Z,99362.09
2023-03-08T13:57:29.124Z,99336.72
2023-03-08T14:00:00.903Z,99317.31
2023-03-08T14:02:32.328Z,99320.09
2023-03-08T14:05:06.952Z,99387.28
2023-03-08T14:07:36.362Z,99396.13
2023-03-08T14:10:06.999Z,99371.78
2023-03-08T14:12:37.535Z,99324.03
2023-03-08T14:15:08.912Z,99263.31
2023-03-08T14:17:38.968Z,99255.44
2023-03-08T14:20:23.081Z,99259.63
2023-03-08T14:22:54.261Z,99254.81
2023-03-08T14:25:27.437Z,99269.47
2023-03-08T14:27:56.904Z,99289.03
2023-03-08T14:30:27.848Z,99296.13
2023-03-08T14:33:01.154Z,99260.34
2023-03-08T14:35:34.819Z,99243.63
2023-03-08T14:38:04.647Z,99230.00
2023-03-08T14:40:35.963Z,99242.44
2023-03-08T14:43:07.347Z,99248.13
2023-03-08T14:45:38.924Z,99248.19
2023-03-08T14:48:25.458Z,99246.13
2023-03-08T14:50:59.676Z,99244.75
2023-03-08T14:53:32.510Z,99241.25
2023-03-08T14:56:09.101Z,99241.41
2023-03-08T14:58:41.884Z,99235.84
2023-03-08T15:01:11.357Z,99237.56
2023-03-08T15:03:41.254Z,99325.25
2023-03-08T15:06:18.593Z,99340.34
2023-03-08T15:08:48.043Z,99298.13
2023-03-08T15:11:18.293Z,99221.84
2023-03-08T15:13:48.086Z,99221.00
2023-03-08T15:16:17.650Z,99182.44
2023-03-08T15:18:47.116Z,99184.66
2023-03-08T15:21:23.363Z,99176.78
2023-03-08T15:23:52.893Z,99195.09
2023-03-08T15:26:26.619Z,99205.00
2023-03-08T15:28:56.099Z,99208.97
2023-03-08T15:31:25.598Z,99204.69
2023-03-08T15:33:55.013Z,99211.69
2023-03-08T15:36:32.487Z,99192.13
2023-03-08T15:39:04.613Z,99189.88
2023-03-08T15:41:34.056Z,99188.91
2023-03-08T15:44:03.743Z,99186.22
2023-03-08T15:46:33.195Z,99186.94
2023-03-08T15:49:02.587Z,99186.06
2023-03-08T15:51:36.095Z,99193.19
2023-03-08T15:54:06.314Z,99183.72
2023-03-08T15:56:35.957Z,99192.97
2023-03-08T15:59:05.595Z,99198.19
2023-03-08T16:01:35.560Z,99193.47
2023-03-08T16:05:15.926Z,99164.63
2023-03-08T16:07:44.282Z,99161.19
2023-03-08T16:10:14.519Z,99158.56
2023-03-08T16:12:42.988Z,99169.31
2023-03-08T16:15:11.848Z,99173.63
2023-03-08T16:17:40.004Z,99168.59
2023-03-08T16:20:09.419Z,99173.44
2023-03-08T16:22:41.539Z,99170.97
2023-03-08T16:25:12.515Z,99168.53
2023-03-08T16:27:42.011Z,99156.38
2023-03-08T16:30:14.103Z,99157.16
2023-03-08T16:32:43.834Z,99173.94
2023-03-08T16:35:13.383Z,99188.03
2023-03-08T16:37:45.390Z,99192.88
2023-03-08T16:40:15.631Z,99183.34
2023-03-08T16:42:45.066Z,99191.81
2023-03-08T16:45:17.596Z,99194.44
2023-03-08T16:47:47.040Z,99190.16
2023-03-08T16:50:16.579Z,99189.69
2023-03-08T16:52:48.551Z,99213.69
2023-03-08T16:55:18.082Z,99311.81
2023-03-08T16:57:47.455Z,99311.72
2023-03-08T17:00:18.552Z,99277.09
2023-03-08T17:02:48.109Z,99241.97
2023-03-08T17:05:17.568Z,99226.50
2023-03-08T17:07:49.599Z,99225.44
2023-03-08T17:10:19.731Z,99229.28
2023-03-08T17:12:49.117Z,99234.28
2023-03-08T17:15:18.579Z,99225.53
2023-03-08T17:17:47.971Z,99219.63
2023-03-08T17:20:17.406Z,99222.31
2023-03-08T17:22:49.453Z,99241.84
2023-03-08T17:25:18.963Z,99245.88
2023-03-08T17:30:47.928Z,99262.19
2023-03-08T17:33:16.996Z,99263.44
2023-03-08T17:35:45.158Z,99280.44
2023-03-08T17:38:13.307Z,99293.94
2023-03-08T17:40:41.437Z,99300.75
2023-03-08T17:43:09.507Z,99300.66
2023-03-08T17:45:37.600Z,99307.03
2023-03-08T17:48:11.301Z,99318.00
2023-03-08T17:50:40.900Z,99325.47
2023-03-08T17:53:12.711Z,99340.97
2023-03-08T17:55:43.909Z,99340.97
2023-03-08T17:58:13.543Z,99350.31
2023-03-08T18:00:43.465Z,99337.72
2023-03-08T18:03:15.506Z,99350.16
2023-03-08T18:05:50.240Z,99337.88
2023-03-08T18:08:20.206Z,99328.25
2023-03-08T18:10:49.860Z,99331.38
2023-03-08T18:13:19.602Z,99326.69
2023-03-08T18:15:49.127Z,99332.88
2023-03-08T18:18:21.526Z,99343.63
2023-03-08T18:20:51.156Z,99343.16
2023-03-08T18:23:22.136Z,99350.88
2023-03-08T18:25:51.557Z,99355.00
2023-03-08T18:28:21.025Z,99359.97
2023-03-08T18:30:50.573Z,99355.00
2023-03-08T18:33:22.812Z,99361.34
2023-03-08T18:35:59.055Z,99349.38
2023-03-08T18:38:28.482Z,99343.41
2023-03-08T18:40:57.980Z,99350.94
2023-03-08T18:43:27.963Z,99349.78
2023-03-08T18:45:58.958Z,99350.56
2023-03-08T18:48:30.987Z,99354.59
2023-03-08T18:51:03.620Z,99361.22
2023-03-08T18:53:33.111Z,99369.50
2023-03-08T18:56:04.102Z,99373.44
2023-03-08T18:58:34.129Z,99375.00
2023-03-08T19:01:03.764Z,99380.06
2023-03-08T19:03:35.830Z,99381.44
2023-03-08T19:06:05.555Z,99385.94
2023-03-08T19:08:35.900Z,99379.69
2023-03-08T19:11:14.896Z,99376.88
2023-03-08T19:13:45.013Z,99381.28
2023-03-08T19:16:20.822Z,99385.38
2023-03-08T19:18:55.553Z,99378.34
2023-03-08T19:21:27.196Z,99379.81
2023-03-08T19:23:56.711Z,99376.50
2023-03-08T19:26:41.050Z,99376.03
2023-03-08T19:29:13.636Z,99388.53
2023-03-08T19:31:44.605Z,99388.13
2023-03-08T19:34:16.863Z,99390.84
2023-03-08T19:36:47.988Z,99379.06
2023-03-08T19:39:19.923Z,99384.81
2023-03-08T19:41:50.867Z,99383.38
2023-03-08T19:44:20.948Z,99380.44
2023-03-08T19:46:50.685Z,99385.13
2023-03-08T19:49:24.562Z,99382.28
2023-03-08T19:51:55.993Z,99378.97
2023-03-08T19:54:26.585Z,99380.16
2023-03-08T19:56:56.564Z,99375.78
2023-03-08T19:59:26.386Z,99370.97
2023-03-08T20:01:57.077Z,99373.34
2023-03-08T20:04:29.334Z,99375.94
2023-03-08T20:07:02.177Z,99381.00
2023-03-08T20:09:31.881Z,99381.00
2023-03-08T20:12:01.344Z,99383.47
2023-03-08T20:14:31.103Z,99387.47
2023-03-08T20:17:01.872Z,99388.16
2023-03-08T20:19:35.730Z,99396.72
2023-03-08T20:22:06.044Z,99395.75
2023-03-08T20:24:35.501Z,99398.28
2023-03-08T20:27:05.236Z,99402.19
2023-03-08T20:29:34.737Z,99407.16
2023-03-08T20:32:04.581Z,99407.81
2023-03-08T20:34:36.586Z,99415.53
2023-03-08T20:37:06.010Z,99413.19
2023-03-08T20:39:35.423Z,99413.09
2023-03-08T20:42:04.816Z,99411.16
2023-03-08T20:44:34.202Z,99406.75
2023-03-08T20:47:04.236Z,99414.66
2023-03-08T20:49:36.316Z,99407.66
2023-03-08T20:52:06.258Z,99407.53
2023-03-08T20:54:35.742Z,99405.47
2023-03-08T20:57:05.655Z,99410.75
2023-03-08T20:59:35.090Z,99414.75
2023-03-08T21:02:04.604Z,99417.84
2023-03-08T21:04:36.559Z,99421.84
2023-03-08T21:07:06.020Z,99422.22
2023-03-08T21:09:35.530Z,99433.94
2023-03-08T21:12:05.207Z,99446.00
2023-03-08T21:14:34.609Z,99447.38
2023-03-08T21:17:04.065Z,99447.38
2023-03-08T21:19:36.050Z,99449.13
2023-03-08T21:22:07.218Z,99440.66
2023-03-08T21:24:36.654Z,99434.59
2023-03-08T21:27:06.096Z,99433.72
2023-03-08T21:29:35.530Z,99428.25
2023-03-08T21:32:05.091Z,99425.72
2023-03-08T21:34:37.108Z,99419.78
2023-03-08T21:37:06.517Z,99427.56
2023-03-08T21:39:35.901Z,99420.25
2023-03-08T21:42:05.363Z,99415.09
2023-03-08T21:44:34.781Z,99414.09
2023-03-08T21:47:04.216Z,99399.78
2023-03-08T21:49:35.110Z,99402.09
2023-03-08T21:52:07.594Z,99385.84
2023-03-08T21:54:37.048Z,99387.41
2023-03-08T21:57:06.491Z,99389.63
2023-03-08T21:59:36.126Z,99392.94
2023-03-08T22:02:05.835Z,99388.06
2023-03-08T22:04:35.323Z,99396.22
2023-03-08T22:07:07.659Z,99398.19
2023-03-08T22:09:37.049Z,99391.38
2023-03-08T22:12:07.193Z,99386.31
2023-03-08T22:14:36.636Z,99372.69
2023-03-08T22:17:07.284Z,99378.72
2023-03-08T22:19:36.736Z,99386.31
2023-03-08T22:22:10.414Z,99389.63
2023-03-08T22:24:40.089Z,99382.59
2023-03-08T22:27:10.769Z,99383.00
2023-03-08T22:29:40.175Z,99386.31
2023-03-08T22:32:10.673Z,99384.34
2023-03-08T22:34:40.302Z,99393.50
2023-03-08T22:37:12.349Z,99383.50
2023-03-08T22:39:41.941Z,99385.91
2023-03-08T22:42:11.482Z,99377.53
2023-03-08T22:44:40.941Z,99374.16
2023-03-08T22:47:10.327Z,99379.22
2023-03-08T22:49:39.729Z,99370.44
2023-03-08T22:52:12.013Z,99379.09
2023-03-08T22:54:41.483Z,99380.44
2023-03-08T22:57:10.856Z,99379.09
2023-03-08T22:59:40.541Z,99370.31
2023-03-08T23:02:10.296Z,99374.22
2023-03-08T23:04:40.021Z,99373.66
2023-03-08T23:07:12.088Z,99370.69
2023-03-08T23:09:41.503Z,99372.75
2023-03-08T23:12:11.676Z,99371.78
2023-03-08T23:14:41.109Z,99373.91
2023-03-08T23:17:10.563Z,99363.28
2023-03-08T23:19:45.000Z,99369.13
2023-03-08T23:22:17.182Z,99372.13
2023-03-08T23:24:47.042Z,99370.47
2023-03-08T23:27:16.483Z,99363.72
2023-03-08T23:29:45.968Z,99357.69
2023-03-08T23:32:15.472Z,99354.19
2023-03-08T23:34:44.885Z,99355.53
2023-03-08T23:37:16.934Z,99360.31
2023-03-08T23:39:46.473Z,99355.13
2023-03-08T23:42:15.951Z,99350.84
2023-03-08T23:44:45.374Z,99359.78
2023-03-08T23:47:14.802Z,99359.78
2023-03-08T23:49:44.573Z,99368.84
2023-03-08T23:52:14.031Z,99368.94
2023-03-08T23:54:46.086Z,99356.06
2023-03-08T23:57:15.559Z,99367.75
2023-03-08T23:59:44.985Z,99372.81
